Polyarny Airport
UERP : now visible

Airfield :











YOU CAN JOIN US ON...

 
LOGIN :

Register | Disclaimer

   EN    FR    IT 

 









Legend :    VFR   Marginal VFR   IFR   Intensive IFR   Very Intensive IFR
Visi :
Ceiling :
>= 8 km
>= 3000ft
5 to 8 km
1000 to 3000 ft
1500m to 5 km
500 to 1000 ft
800 to 1500m
200 to 500 ft
< 800m
< 200 ft
Symbols :   Thunderstorms  Fog  Heavy snow  Heavy precipitations  Wind > 20 kt






- Airport Elevation : 1660 ft
- IATA code : PYJ


UERP - Polyarny

CURRENT METAR :
  • 100900Z 24007G13MPS 9999 DRSN SCT030 OVC100 M01/M10 Q1016 R35/250160 NOSIG RMK QFE718

EXPIRED METARs :
  • 100830Z 25007G14MPS 9999 DRSN SCT030CB OVC100 M01/M10 Q1015 R35/250160 NOSIG RMK QFE717
  • 100800Z 24008G13MPS 9999 DRSN SCT030CB BKN100 M01/M10 Q1015 R35/250160 NOSIG RMK QFE717
  • 100730Z 24008G14MPS 9999 DRSN SCT030 BKN100 M01/M10 Q1014 R35/250160 NOSIG RMK QFE717
  • 100700Z 24007G13MPS 9999 DRSN SCT030 BKN100 M00/M10 Q1014 R35/250160 NOSIG RMK QFE717

TAF TAF UERP
Valid from the 10 at 09:00 until the 11 at 09:00 UTC


100800Z 1009/1109 25007G13MPS 9999 SCT017CB OVC100
TEMPO 1009/1015 4000 -SHSN DRSN SCT015CB OVC100



MET'MAP, your aeronautical weather chart ! - Copyright ORBIFLY December 2007 - Disclaimer

ORBIFLY MET'MAP TEAM :

Programming & Development : Alexandra Zaïnal
Concept & original design : Baudouin d'Aumeries
Assistance for programming : Marc-Olivier Méhu
Technical & hardware support : Manuel Goepfert

Contact : metmap@orbifly.com




SOURCES & CREDITS :

   NOAA       Earth
Advisory